Talla Bena, Louisiana
Current Conditions -  °F | °C
As of 2:53 PM on Sunday 23 Nov 2014 (Local Time) from KTVR Reporting Station
Broken Clouds Broken Clouds  
Wind Chill: 69°   Ceiling: 3700
Heat Index: 69°   Visibility: 10mi
Dew Point: 59°   Wind: 10mph
Humidity: 70%   Direction: 220°SW
Pressure: 29.49"   Gusts: 18mph
Location:  32.5752°N, 91.2825°W
Report Text: KTVR 232053Z AUTO 22009G16KT 180V240 10SM SCT030 BKN037 BKN048 21/15 A2949 RMK AO2 SLP993 60002 T02060150 55006
Loading
Personal Weather Stations






























Interactive Weather Map New forecast layout! Learn more

10-Day Weather Forecast

Advertisements
Track Severe Weather on mobile